createdAt,value
2019-02-22T00:00:34.846Z,67.19
2019-02-22T00:04:39.759Z,67.07
2019-02-22T00:08:44.653Z,67.18
2019-02-22T00:12:49.564Z,67.68
2019-02-22T00:16:54.488Z,67.64
2019-02-22T00:21:00.366Z,67.45
2019-02-22T00:25:06.107Z,67.35
2019-02-22T00:29:11.018Z,67.48
2019-02-22T00:33:15.926Z,67.43
2019-02-22T00:37:20.900Z,67.47
2019-02-22T00:41:25.750Z,67.43
2019-02-22T00:45:30.647Z,67.45
2019-02-22T00:49:35.564Z,67.47
2019-02-22T00:53:40.472Z,67.50
2019-02-22T00:57:45.386Z,67.36
2019-02-22T01:01:50.302Z,67.16
2019-02-22T01:05:55.202Z,67.28
2019-02-22T01:10:00.378Z,67.19
2019-02-22T01:14:05.321Z,67.44
2019-02-22T01:18:10.221Z,67.56
2019-02-22T01:22:15.113Z,67.64
2019-02-22T01:26:20.018Z,68.20
2019-02-22T01:30:24.933Z,68.91
2019-02-22T01:34:29.854Z,69.50
2019-02-22T01:38:35.739Z,70.85
2019-02-22T01:42:40.631Z,71.29
2019-02-22T01:46:45.533Z,72.01
2019-02-22T01:50:50.435Z,71.88
2019-02-22T01:54:55.340Z,72.12
2019-02-22T01:59:00.246Z,72.25
2019-02-22T02:03:05.151Z,72.12
2019-02-22T02:07:10.115Z,72.19
2019-02-22T02:11:15.022Z,71.93
2019-02-22T02:15:19.933Z,71.79
2019-02-22T02:19:24.848Z,71.64
2019-02-22T02:23:29.735Z,71.44
2019-02-22T02:27:34.636Z,71.42
2019-02-22T02:31:39.542Z,71.38
2019-02-22T02:35:44.440Z,71.39
2019-02-22T02:39:49.351Z,71.22
2019-02-22T02:43:54.237Z,71.22
2019-02-22T02:47:59.142Z,71.12
2019-02-22T02:52:04.047Z,71.09
2019-02-22T02:56:08.957Z,71.03
2019-02-22T03:00:13.852Z,70.99
2019-02-22T03:04:18.761Z,71.04
2019-02-22T03:08:25.302Z,71.05
2019-02-22T03:12:30.202Z,71.11
2019-02-22T03:16:35.113Z,71.17
2019-02-22T03:20:40.007Z,71.24
2019-02-22T03:24:44.909Z,71.33
2019-02-22T03:28:49.823Z,71.28
2019-02-22T03:32:54.721Z,71.25
2019-02-22T03:36:59.620Z,71.31
2019-02-22T03:41:04.542Z,71.24
2019-02-22T03:45:09.723Z,71.14
2019-02-22T03:49:14.626Z,70.88
2019-02-22T03:53:24.233Z,70.60
2019-02-22T03:57:29.155Z,70.51
2019-02-22T04:01:34.055Z,70.50
2019-02-22T04:05:38.950Z,70.57
2019-02-22T04:09:43.864Z,70.62
2019-02-22T04:13:48.767Z,70.62
2019-02-22T04:17:53.683Z,70.45
2019-02-22T04:21:59.526Z,70.44
2019-02-22T04:26:04.501Z,70.25
2019-02-22T04:30:10.678Z,70.07
2019-02-22T04:34:15.590Z,69.93
2019-02-22T04:38:20.508Z,69.86
2019-02-22T04:42:25.410Z,69.62
2019-02-22T04:46:30.309Z,69.38
2019-02-22T04:50:35.799Z,69.15
2019-02-22T04:54:40.716Z,69.19
2019-02-22T04:58:45.621Z,69.29
2019-02-22T05:02:50.538Z,69.33
2019-02-22T05:06:55.445Z,69.38
2019-02-22T05:11:00.342Z,69.36
2019-02-22T05:15:12.403Z,69.28
2019-02-22T05:19:12.624Z,69.22
2019-02-22T05:23:17.559Z,69.26
2019-02-22T05:27:22.423Z,69.28
2019-02-22T05:31:27.337Z,69.46
2019-02-22T05:35:32.242Z,69.52
2019-02-22T05:39:37.149Z,69.78
2019-02-22T05:43:42.065Z,69.57
2019-02-22T05:47:46.969Z,69.69
2019-02-22T05:51:51.866Z,69.82
2019-02-22T05:55:56.785Z,69.93
2019-02-22T06:00:01.694Z,69.99
2019-02-22T06:04:06.602Z,69.99
2019-02-22T06:08:11.513Z,69.97
2019-02-22T06:12:18.505Z,69.98
2019-02-22T06:16:23.018Z,69.97
2019-02-22T06:20:27.931Z,69.76
2019-02-22T06:24:32.838Z,69.42
2019-02-22T06:28:37.749Z,69.32
2019-02-22T06:32:42.670Z,69.36
2019-02-22T06:36:47.573Z,69.38
2019-02-22T06:40:52.492Z,69.55
2019-02-22T06:44:57.420Z,69.66
2019-02-22T06:49:02.329Z,69.56
2019-02-22T06:53:07.231Z,69.51
2019-02-22T06:57:12.137Z,69.58
2019-02-22T07:01:17.050Z,69.52
2019-02-22T07:05:21.971Z,69.50
2019-02-22T07:09:26.896Z,69.31
2019-02-22T07:13:31.772Z,68.96
2019-02-22T07:17:36.749Z,68.72
2019-02-22T07:21:52.102Z,68.48
2019-02-22T07:25:49.361Z,68.47
2019-02-22T07:29:54.292Z,68.50
2019-02-22T07:33:59.176Z,68.09
2019-02-22T07:38:04.091Z,67.68
2019-02-22T07:42:09.006Z,67.69
2019-02-22T07:46:13.917Z,67.62
2019-02-22T07:50:18.829Z,67.42
2019-02-22T07:54:24.703Z,67.49
2019-02-22T07:58:29.610Z,67.52
2019-02-22T08:02:34.521Z,67.37
2019-02-22T08:06:42.350Z,66.96
2019-02-22T08:10:46.042Z,66.84
2019-02-22T08:14:50.945Z,66.64
2019-02-22T08:19:01.703Z,66.67
2019-02-22T08:23:02.483Z,66.19
2019-02-22T08:27:07.403Z,64.96
2019-02-22T08:31:12.309Z,64.98
2019-02-22T08:35:18.280Z,64.46
2019-02-22T08:39:23.187Z,64.55
2019-02-22T08:43:31.445Z,63.84
2019-02-22T08:47:35.584Z,62.46
2019-02-22T08:51:40.510Z,61.01
2019-02-22T08:55:45.394Z,60.02
2019-02-22T08:59:50.304Z,59.93
2019-02-22T09:03:55.193Z,58.82
2019-02-22T09:08:00.101Z,59.52
2019-02-22T09:12:05.013Z,58.12
2019-02-22T09:16:09.898Z,56.57
2019-02-22T09:20:14.791Z,55.09
2019-02-22T09:24:19.684Z,54.23
2019-02-22T09:28:24.585Z,54.08
2019-02-22T09:32:29.484Z,53.57
2019-02-22T09:36:34.379Z,51.87
2019-02-22T09:40:39.280Z,53.07
2019-02-22T09:44:44.180Z,51.99
2019-02-22T09:48:49.081Z,50.20
2019-02-22T09:52:53.977Z,51.71
2019-02-22T09:56:58.864Z,51.94
2019-02-22T10:01:03.771Z,52.32
2019-02-22T10:05:10.299Z,52.45
2019-02-22T10:09:15.196Z,51.69
2019-02-22T10:13:20.094Z,52.21
2019-02-22T10:17:24.984Z,52.24
2019-02-22T10:21:29.885Z,52.74
2019-02-22T10:25:34.793Z,52.99
2019-02-22T10:29:39.688Z,52.00
2019-02-22T10:33:44.587Z,52.17
2019-02-22T10:37:50.445Z,51.98
2019-02-22T10:41:55.340Z,51.36
2019-02-22T10:46:00.250Z,51.93
2019-02-22T10:50:06.788Z,52.37
2019-02-22T10:54:11.704Z,52.67
2019-02-22T10:58:16.571Z,52.10
2019-02-22T11:02:21.470Z,50.69
2019-02-22T11:06:26.375Z,51.34
2019-02-22T11:10:32.264Z,50.65
2019-02-22T11:14:37.170Z,52.00
2019-02-22T11:18:42.084Z,52.34
2019-02-22T11:22:47.049Z,52.05
2019-02-22T11:26:51.924Z,52.65
2019-02-22T11:30:56.821Z,52.82
2019-02-22T11:35:01.738Z,52.98
2019-02-22T11:39:07.102Z,54.02
2019-02-22T11:43:13.598Z,54.48
2019-02-22T11:47:18.495Z,54.98
2019-02-22T11:51:23.391Z,55.60
2019-02-22T11:55:28.364Z,55.92
2019-02-22T11:59:33.256Z,55.76
2019-02-22T12:03:38.152Z,54.55
2019-02-22T12:07:43.052Z,54.37
2019-02-22T12:11:47.958Z,53.55
2019-02-22T12:15:53.041Z,53.32
2019-02-22T12:19:58.179Z,53.15
2019-02-22T12:24:03.060Z,53.10
2019-02-22T12:28:07.966Z,52.83
2019-02-22T12:32:12.872Z,51.66
2019-02-22T12:36:18.950Z,52.22
2019-02-22T12:40:23.855Z,52.21
2019-02-22T12:44:28.744Z,52.05
2019-02-22T12:48:34.616Z,51.84
2019-02-22T12:52:39.512Z,52.17
2019-02-22T12:56:56.739Z,51.95
2019-02-22T13:00:51.005Z,52.21
2019-02-22T13:04:57.140Z,51.91
2019-02-22T13:09:02.039Z,52.33
2019-02-22T13:13:08.539Z,52.57
2019-02-22T13:17:13.443Z,52.73
2019-02-22T13:21:18.369Z,52.71
2019-02-22T13:25:23.266Z,53.06
2019-02-22T13:29:28.171Z,53.12
2019-02-22T13:33:33.072Z,53.08
2019-02-22T13:37:37.980Z,53.33
2019-02-22T13:41:42.896Z,53.70
2019-02-22T13:45:47.858Z,54.04
2019-02-22T13:49:52.768Z,54.04
2019-02-22T13:53:57.674Z,54.58
2019-02-22T13:58:02.582Z,54.91
2019-02-22T14:02:07.492Z,54.79
2019-02-22T14:06:12.382Z,54.89
2019-02-22T14:10:17.290Z,54.43
2019-02-22T14:14:22.192Z,54.39
2019-02-22T14:18:27.103Z,54.60
2019-02-22T14:22:32.011Z,54.12
2019-02-22T14:26:36.907Z,54.30
2019-02-22T14:30:41.806Z,54.76
2019-02-22T14:34:46.715Z,54.56
2019-02-22T14:38:51.672Z,55.21
2019-02-22T14:42:56.537Z,55.48
2019-02-22T14:47:01.429Z,55.39
2019-02-22T14:51:06.348Z,55.76
2019-02-22T14:55:11.253Z,55.79
2019-02-22T14:59:16.161Z,55.74
2019-02-22T15:03:21.057Z,55.79
2019-02-22T15:07:25.962Z,55.96
2019-02-22T15:11:31.328Z,56.37
2019-02-22T15:15:40.880Z,56.31
2019-02-22T15:19:45.782Z,56.61
2019-02-22T15:23:50.698Z,56.63
2019-02-22T15:27:55.576Z,56.60
2019-02-22T15:32:00.484Z,56.83
2019-02-22T15:36:06.331Z,57.18
2019-02-22T15:40:12.050Z,57.35
2019-02-22T15:44:17.008Z,57.46
2019-02-22T15:48:21.852Z,57.41
2019-02-22T15:52:26.760Z,57.26
2019-02-22T15:56:31.664Z,57.36
2019-02-22T16:00:36.831Z,57.55
2019-02-22T16:04:45.218Z,57.74
2019-02-22T16:08:49.967Z,58.25
2019-02-22T16:12:54.879Z,58.35
2019-02-22T16:16:59.789Z,58.55
2019-02-22T16:21:04.684Z,58.83
2019-02-22T16:25:18.977Z,59.00
2019-02-22T16:29:16.182Z,59.01
2019-02-22T16:33:21.095Z,60.08
2019-02-22T16:37:25.998Z,59.59
2019-02-22T16:41:30.911Z,59.74
2019-02-22T16:45:35.813Z,59.97
2019-02-22T16:49:40.712Z,60.05
2019-02-22T16:53:46.580Z,60.14
2019-02-22T16:57:51.491Z,60.15
2019-02-22T17:01:56.393Z,60.31
2019-02-22T17:06:01.299Z,60.26
2019-02-22T17:10:09.115Z,60.47
2019-02-22T17:14:14.016Z,60.71
2019-02-22T17:18:18.915Z,60.75
2019-02-22T17:22:23.822Z,61.06
2019-02-22T17:26:28.721Z,61.44
2019-02-22T17:30:33.610Z,61.72
2019-02-22T17:34:38.516Z,61.96
2019-02-22T17:38:43.408Z,61.92
2019-02-22T17:42:48.310Z,61.89
2019-02-22T17:46:57.698Z,61.68
2019-02-22T17:50:59.790Z,61.31
2019-02-22T17:55:06.424Z,61.11
2019-02-22T17:59:11.315Z,61.47
2019-02-22T18:03:16.216Z,61.21
2019-02-22T18:07:22.287Z,61.25
2019-02-22T18:11:27.182Z,61.39
2019-02-22T18:15:32.089Z,61.15
2019-02-22T18:19:36.984Z,61.66
2019-02-22T18:23:41.889Z,61.94
2019-02-22T18:27:46.784Z,61.90
2019-02-22T18:31:51.673Z,62.01
2019-02-22T18:35:56.583Z,62.08
2019-02-22T18:40:01.505Z,62.15
2019-02-22T18:44:07.363Z,62.23
2019-02-22T18:48:12.257Z,62.33
2019-02-22T18:52:17.197Z,62.41
2019-02-22T18:56:22.124Z,62.68
2019-02-22T19:00:27.035Z,62.48
2019-02-22T19:04:31.937Z,62.86
2019-02-22T19:08:36.950Z,62.93
2019-02-22T19:12:41.908Z,63.06
2019-02-22T19:16:46.823Z,63.49
2019-02-22T19:20:51.742Z,63.82
2019-02-22T19:24:56.652Z,64.04
2019-02-22T19:29:01.566Z,64.21
2019-02-22T19:33:06.457Z,64.90
2019-02-22T19:37:11.375Z,65.25
2019-02-22T19:41:16.281Z,65.39
2019-02-22T19:45:21.193Z,65.34
2019-02-22T19:49:26.106Z,65.36
2019-02-22T19:53:31.016Z,65.49
2019-02-22T19:57:35.935Z,64.89
2019-02-22T20:01:40.850Z,64.76
2019-02-22T20:05:45.760Z,64.25
2019-02-22T20:09:50.660Z,63.68
2019-02-22T20:13:55.566Z,64.11
2019-02-22T20:18:01.243Z,64.85
2019-02-22T20:22:06.217Z,64.90
2019-02-22T20:26:11.131Z,64.94
2019-02-22T20:30:19.663Z,64.42
2019-02-22T20:34:24.630Z,64.25
2019-02-22T20:38:30.565Z,63.86
2019-02-22T20:42:35.476Z,63.71
2019-02-22T20:46:40.394Z,63.97
2019-02-22T20:50:45.294Z,64.33
2019-02-22T20:54:50.212Z,64.31
2019-02-22T20:58:55.140Z,64.12
2019-02-22T21:03:00.036Z,64.37
2019-02-22T21:07:04.949Z,64.42
2019-02-22T21:11:09.849Z,64.50
2019-02-22T21:15:15.134Z,64.83
2019-02-22T21:19:20.039Z,65.02
2019-02-22T21:23:25.916Z,64.49
2019-02-22T21:27:30.823Z,64.22
2019-02-22T21:31:35.714Z,64.40
2019-02-22T21:35:40.621Z,64.89
2019-02-22T21:39:45.529Z,64.87
2019-02-22T21:43:50.435Z,64.86
2019-02-22T21:47:55.843Z,64.61
2019-02-22T21:52:00.824Z,64.52
2019-02-22T21:56:05.731Z,64.64
2019-02-22T22:00:19.628Z,64.52
2019-02-22T22:04:24.624Z,63.85
2019-02-22T22:08:29.512Z,63.97
2019-02-22T22:12:34.404Z,63.81
2019-02-22T22:16:39.316Z,64.35
2019-02-22T22:20:44.221Z,64.42
2019-02-22T22:24:49.139Z,64.38
2019-02-22T22:28:54.046Z,65.07
2019-02-22T22:32:58.948Z,65.50
2019-02-22T22:37:03.856Z,65.40
2019-02-22T22:41:08.765Z,64.87
2019-02-22T22:45:15.913Z,65.31
2019-02-22T22:49:20.788Z,65.29
2019-02-22T22:53:25.686Z,65.81
2019-02-22T22:57:30.594Z,68.21
2019-02-22T23:01:35.651Z,70.44
2019-02-22T23:05:41.618Z,70.73
2019-02-22T23:09:46.787Z,70.65
2019-02-22T23:13:51.675Z,70.57
2019-02-22T23:17:56.585Z,70.42
2019-02-22T23:22:01.497Z,70.51
2019-02-22T23:26:06.403Z,70.22
2019-02-22T23:30:11.466Z,69.59
2019-02-22T23:34:16.357Z,69.17
2019-02-22T23:38:21.273Z,69.20
2019-02-22T23:42:26.188Z,68.93
2019-02-22T23:46:31.089Z,68.81
2019-02-22T23:50:35.999Z,68.86
2019-02-22T23:54:40.891Z,67.87
2019-02-22T23:58:45.810Z,67.41
